sensor_id;sensor_type;location;lat;lon;timestamp;P1;durP1;ratioP1;P2;durP2;ratioP2
65096;SDS011;51686;46.758;4.356;2022-07-23T00:01:53;9.85;;;6.63;;
65096;SDS011;51686;46.758;4.356;2022-07-23T00:08:33;9.90;;;6.90;;
65096;SDS011;51686;46.758;4.356;2022-07-23T00:15:04;11.88;;;6.82;;
65096;SDS011;51686;46.758;4.356;2022-07-23T00:18:39;10.88;;;7.07;;
65096;SDS011;51686;46.758;4.356;2022-07-23T00:21:39;10.20;;;6.68;;
65096;SDS011;51686;46.758;4.356;2022-07-23T00:24:42;11.10;;;7.87;;
65096;SDS011;51686;46.758;4.356;2022-07-23T00:28:22;10.55;;;6.68;;
65096;SDS011;51686;46.758;4.356;2022-07-23T00:31:44;10.20;;;6.25;;
65096;SDS011;51686;46.758;4.356;2022-07-23T00:34:46;10.57;;;7.57;;
65096;SDS011;51686;46.758;4.356;2022-07-23T00:37:47;10.57;;;7.13;;
65096;SDS011;51686;46.758;4.356;2022-07-23T00:40:58;12.45;;;7.20;;
65096;SDS011;51686;46.758;4.356;2022-07-23T00:43:52;10.98;;;7.18;;
65096;SDS011;51686;46.758;4.356;2022-07-23T00:46:52;10.35;;;6.97;;
65096;SDS011;51686;46.758;4.356;2022-07-23T00:50:03;10.25;;;6.93;;
65096;SDS011;51686;46.758;4.356;2022-07-23T00:52:57;10.73;;;7.35;;
65096;SDS011;51686;46.758;4.356;2022-07-23T00:56:05;9.88;;;6.78;;
65096;SDS011;51686;46.758;4.356;2022-07-23T00:58:59;11.00;;;7.97;;
65096;SDS011;51686;46.758;4.356;2022-07-23T01:02:11;11.00;;;7.57;;
65096;SDS011;51686;46.758;4.356;2022-07-23T01:05:09;10.65;;;7.22;;
65096;SDS011;51686;46.758;4.356;2022-07-23T01:08:08;10.65;;;7.28;;
65096;SDS011;51686;46.758;4.356;2022-07-23T01:14:29;10.95;;;6.95;;
65096;SDS011;51686;46.758;4.356;2022-07-23T01:17:40;11.07;;;7.00;;
65096;SDS011;51686;46.758;4.356;2022-07-23T01:20:45;11.93;;;6.97;;
65096;SDS011;51686;46.758;4.356;2022-07-23T01:23:45;12.25;;;7.22;;
65096;SDS011;51686;46.758;4.356;2022-07-23T01:26:42;10.43;;;7.35;;
65096;SDS011;51686;46.758;4.356;2022-07-23T01:29:40;10.55;;;6.70;;
65096;SDS011;51686;46.758;4.356;2022-07-23T01:32:30;10.07;;;6.72;;
65096;SDS011;51686;46.758;4.356;2022-07-23T01:35:50;9.45;;;6.32;;
65096;SDS011;51686;46.758;4.356;2022-07-23T01:38:47;11.13;;;6.80;;
65096;SDS011;51686;46.758;4.356;2022-07-23T01:41:52;10.90;;;7.07;;
65096;SDS011;51686;46.758;4.356;2022-07-23T01:44:42;10.93;;;6.90;;
65096;SDS011;51686;46.758;4.356;2022-07-23T01:47:53;10.00;;;6.65;;
65096;SDS011;51686;46.758;4.356;2022-07-23T01:50:49;10.43;;;6.97;;
65096;SDS011;51686;46.758;4.356;2022-07-23T01:53:40;10.32;;;6.88;;
65096;SDS011;51686;46.758;4.356;2022-07-23T01:56:40;9.80;;;6.68;;
65096;SDS011;51686;46.758;4.356;2022-07-23T01:59:37;10.02;;;6.63;;
65096;SDS011;51686;46.758;4.356;2022-07-23T02:02:29;11.48;;;6.88;;
65096;SDS011;51686;46.758;4.356;2022-07-23T02:05:30;10.68;;;6.55;;
65096;SDS011;51686;46.758;4.356;2022-07-23T02:08:38;9.73;;;6.47;;
65096;SDS011;51686;46.758;4.356;2022-07-23T02:11:53;9.68;;;5.95;;
65096;SDS011;51686;46.758;4.356;2022-07-23T02:14:53;10.48;;;6.60;;
65096;SDS011;51686;46.758;4.356;2022-07-23T02:17:46;9.73;;;6.55;;
65096;SDS011;51686;46.758;4.356;2022-07-23T02:20:41;10.48;;;6.65;;
65096;SDS011;51686;46.758;4.356;2022-07-23T02:26:37;10.18;;;6.18;;
65096;SDS011;51686;46.758;4.356;2022-07-23T02:29:40;10.27;;;6.95;;
65096;SDS011;51686;46.758;4.356;2022-07-23T02:32:49;9.73;;;6.40;;
65096;SDS011;51686;46.758;4.356;2022-07-23T02:36:05;10.30;;;6.57;;
65096;SDS011;51686;46.758;4.356;2022-07-23T02:39:20;11.52;;;7.35;;
65096;SDS011;51686;46.758;4.356;2022-07-23T02:42:55;10.17;;;6.70;;
65096;SDS011;51686;46.758;4.356;2022-07-23T02:46:19;10.30;;;6.78;;
65096;SDS011;51686;46.758;4.356;2022-07-23T02:49:36;10.77;;;6.93;;
65096;SDS011;51686;46.758;4.356;2022-07-23T02:52:34;12.25;;;7.53;;
65096;SDS011;51686;46.758;4.356;2022-07-23T02:59:31;11.18;;;6.90;;
65096;SDS011;51686;46.758;4.356;2022-07-23T03:02:47;10.73;;;7.15;;
65096;SDS011;51686;46.758;4.356;2022-07-23T03:05:43;11.70;;;6.75;;
65096;SDS011;51686;46.758;4.356;2022-07-23T03:08:47;10.50;;;7.07;;
65096;SDS011;51686;46.758;4.356;2022-07-23T03:11:55;10.60;;;7.00;;
65096;SDS011;51686;46.758;4.356;2022-07-23T03:14:53;10.50;;;6.82;;
65096;SDS011;51686;46.758;4.356;2022-07-23T03:21:32;10.60;;;7.20;;
65096;SDS011;51686;46.758;4.356;2022-07-23T03:24:29;10.32;;;7.35;;
65096;SDS011;51686;46.758;4.356;2022-07-23T03:27:35;10.13;;;6.85;;
65096;SDS011;51686;46.758;4.356;2022-07-23T03:30:27;10.40;;;7.07;;
65096;SDS011;51686;46.758;4.356;2022-07-23T03:33:30;11.13;;;7.07;;
65096;SDS011;51686;46.758;4.356;2022-07-23T03:36:26;9.98;;;6.90;;
65096;SDS011;51686;46.758;4.356;2022-07-23T03:39:21;10.77;;;6.85;;
65096;SDS011;51686;46.758;4.356;2022-07-23T03:42:08;10.95;;;7.28;;
65096;SDS011;51686;46.758;4.356;2022-07-23T03:44:55;10.48;;;7.03;;
65096;SDS011;51686;46.758;4.356;2022-07-23T03:47:45;10.80;;;7.07;;
65096;SDS011;51686;46.758;4.356;2022-07-23T03:50:36;10.07;;;6.90;;
65096;SDS011;51686;46.758;4.356;2022-07-23T03:53:24;10.98;;;7.38;;
65096;SDS011;51686;46.758;4.356;2022-07-23T03:56:22;10.95;;;6.47;;
65096;SDS011;51686;46.758;4.356;2022-07-23T03:59:09;9.73;;;6.22;;
65096;SDS011;51686;46.758;4.356;2022-07-23T04:01:57;10.45;;;6.28;;
65096;SDS011;51686;46.758;4.356;2022-07-23T04:04:44;11.00;;;6.78;;
65096;SDS011;51686;46.758;4.356;2022-07-23T04:07:33;9.43;;;5.97;;
65096;SDS011;51686;46.758;4.356;2022-07-23T04:10:21;9.43;;;6.20;;
65096;SDS011;51686;46.758;4.356;2022-07-23T04:13:10;9.32;;;6.00;;
65096;SDS011;51686;46.758;4.356;2022-07-23T04:16:03;9.70;;;5.93;;
65096;SDS011;51686;46.758;4.356;2022-07-23T04:18:54;10.43;;;6.25;;
65096;SDS011;51686;46.758;4.356;2022-07-23T04:21:41;9.77;;;5.85;;
65096;SDS011;51686;46.758;4.356;2022-07-23T04:24:29;9.93;;;6.20;;
65096;SDS011;51686;46.758;4.356;2022-07-23T04:27:20;10.38;;;6.32;;
65096;SDS011;51686;46.758;4.356;2022-07-23T04:30:16;9.80;;;5.60;;
65096;SDS011;51686;46.758;4.356;2022-07-23T04:33:12;9.65;;;5.65;;
65096;SDS011;51686;46.758;4.356;2022-07-23T04:36:06;9.32;;;5.90;;
65096;SDS011;51686;46.758;4.356;2022-07-23T04:39:02;10.27;;;4.93;;
65096;SDS011;51686;46.758;4.356;2022-07-23T04:41:54;10.55;;;5.28;;
65096;SDS011;51686;46.758;4.356;2022-07-23T04:44:48;8.95;;;5.13;;
65096;SDS011;51686;46.758;4.356;2022-07-23T04:47:40;8.85;;;5.30;;
65096;SDS011;51686;46.758;4.356;2022-07-23T04:50:31;8.80;;;5.03;;
65096;SDS011;51686;46.758;4.356;2022-07-23T04:53:20;9.13;;;5.15;;
65096;SDS011;51686;46.758;4.356;2022-07-23T04:56:07;8.32;;;4.90;;
65096;SDS011;51686;46.758;4.356;2022-07-23T04:58:59;8.60;;;4.82;;
65096;SDS011;51686;46.758;4.356;2022-07-23T05:02:00;8.70;;;5.10;;
65096;SDS011;51686;46.758;4.356;2022-07-23T05:04:47;9.10;;;5.00;;
65096;SDS011;51686;46.758;4.356;2022-07-23T05:07:37;9.30;;;4.72;;
65096;SDS011;51686;46.758;4.356;2022-07-23T05:13:16;9.30;;;4.22;;
65096;SDS011;51686;46.758;4.356;2022-07-23T05:16:03;8.65;;;4.68;;
65096;SDS011;51686;46.758;4.356;2022-07-23T05:18:50;8.93;;;5.00;;
65096;SDS011;51686;46.758;4.356;2022-07-23T05:21:37;8.07;;;4.45;;
65096;SDS011;51686;46.758;4.356;2022-07-23T05:24:27;8.55;;;4.40;;
65096;SDS011;51686;46.758;4.356;2022-07-23T05:27:20;8.68;;;4.72;;
65096;SDS011;51686;46.758;4.356;2022-07-23T05:30:12;8.95;;;5.07;;
65096;SDS011;51686;46.758;4.356;2022-07-23T05:33:10;9.27;;;4.63;;
65096;SDS011;51686;46.758;4.356;2022-07-23T05:36:03;7.93;;;4.25;;
65096;SDS011;51686;46.758;4.356;2022-07-23T05:38:50;7.80;;;4.32;;
65096;SDS011;51686;46.758;4.356;2022-07-23T05:41:37;8.70;;;4.80;;
65096;SDS011;51686;46.758;4.356;2022-07-23T05:44:25;8.25;;;4.22;;
65096;SDS011;51686;46.758;4.356;2022-07-23T05:47:20;7.95;;;4.45;;
65096;SDS011;51686;46.758;4.356;2022-07-23T05:50:07;8.13;;;4.40;;
65096;SDS011;51686;46.758;4.356;2022-07-23T05:52:57;8.55;;;4.40;;
65096;SDS011;51686;46.758;4.356;2022-07-23T05:55:45;8.50;;;4.40;;
65096;SDS011;51686;46.758;4.356;2022-07-23T05:58:32;8.15;;;4.40;;
65096;SDS011;51686;46.758;4.356;2022-07-23T06:01:18;8.55;;;4.63;;
65096;SDS011;51686;46.758;4.356;2022-07-23T06:04:05;7.93;;;4.50;;
65096;SDS011;51686;46.758;4.356;2022-07-23T06:06:52;8.77;;;4.63;;
65096;SDS011;51686;46.758;4.356;2022-07-23T06:09:41;8.18;;;4.30;;
65096;SDS011;51686;46.758;4.356;2022-07-23T06:12:31;8.90;;;4.60;;
65096;SDS011;51686;46.758;4.356;2022-07-23T06:15:18;8.65;;;4.55;;
65096;SDS011;51686;46.758;4.356;2022-07-23T06:18:11;8.20;;;4.03;;
65096;SDS011;51686;46.758;4.356;2022-07-23T06:21:09;8.35;;;4.22;;
65096;SDS011;51686;46.758;4.356;2022-07-23T06:24:27;8.10;;;4.43;;
65096;SDS011;51686;46.758;4.356;2022-07-23T06:27:16;8.30;;;4.07;;
65096;SDS011;51686;46.758;4.356;2022-07-23T06:30:15;8.13;;;4.10;;
65096;SDS011;51686;46.758;4.356;2022-07-23T06:33:21;8.52;;;3.90;;
65096;SDS011;51686;46.758;4.356;2022-07-23T06:39:17;6.90;;;3.47;;
65096;SDS011;51686;46.758;4.356;2022-07-23T06:42:29;7.32;;;3.83;;
65096;SDS011;51686;46.758;4.356;2022-07-23T06:45:17;7.88;;;3.95;;
65096;SDS011;51686;46.758;4.356;2022-07-23T06:48:06;7.63;;;3.78;;
65096;SDS011;51686;46.758;4.356;2022-07-23T06:50:52;7.72;;;3.80;;
65096;SDS011;51686;46.758;4.356;2022-07-23T06:53:39;7.88;;;3.75;;
65096;SDS011;51686;46.758;4.356;2022-07-23T06:56:27;7.65;;;3.42;;
65096;SDS011;51686;46.758;4.356;2022-07-23T06:59:14;7.00;;;3.50;;
65096;SDS011;51686;46.758;4.356;2022-07-23T07:02:01;8.48;;;4.13;;
65096;SDS011;51686;46.758;4.356;2022-07-23T07:04:48;7.45;;;3.58;;
65096;SDS011;51686;46.758;4.356;2022-07-23T07:07:36;7.07;;;3.45;;
65096;SDS011;51686;46.758;4.356;2022-07-23T07:10:22;7.40;;;3.30;;
65096;SDS011;51686;46.758;4.356;2022-07-23T07:13:09;7.47;;;3.25;;
65096;SDS011;51686;46.758;4.356;2022-07-23T07:15:56;8.68;;;3.70;;
65096;SDS011;51686;46.758;4.356;2022-07-23T07:18:43;7.00;;;3.25;;
65096;SDS011;51686;46.758;4.356;2022-07-23T07:21:30;7.72;;;3.67;;
65096;SDS011;51686;46.758;4.356;2022-07-23T07:24:20;7.55;;;3.85;;
65096;SDS011;51686;46.758;4.356;2022-07-23T07:27:06;8.55;;;4.30;;
65096;SDS011;51686;46.758;4.356;2022-07-23T07:29:55;8.40;;;4.15;;
65096;SDS011;51686;46.758;4.356;2022-07-23T07:32:42;7.70;;;3.80;;
65096;SDS011;51686;46.758;4.356;2022-07-23T07:35:45;7.47;;;3.63;;
65096;SDS011;51686;46.758;4.356;2022-07-23T07:38:32;7.35;;;3.50;;
65096;SDS011;51686;46.758;4.356;2022-07-23T07:41:18;7.95;;;3.70;;
65096;SDS011;51686;46.758;4.356;2022-07-23T07:44:09;7.78;;;3.50;;
65096;SDS011;51686;46.758;4.356;2022-07-23T07:46:59;7.18;;;3.35;;
65096;SDS011;51686;46.758;4.356;2022-07-23T07:49:46;7.72;;;3.55;;
65096;SDS011;51686;46.758;4.356;2022-07-23T07:52:32;7.90;;;3.53;;
65096;SDS011;51686;46.758;4.356;2022-07-23T07:55:19;7.07;;;3.65;;
65096;SDS011;51686;46.758;4.356;2022-07-23T07:58:06;8.07;;;3.60;;
65096;SDS011;51686;46.758;4.356;2022-07-23T08:00:53;7.28;;;3.58;;
65096;SDS011;51686;46.758;4.356;2022-07-23T08:03:40;8.23;;;3.83;;
65096;SDS011;51686;46.758;4.356;2022-07-23T08:06:28;7.40;;;3.55;;
65096;SDS011;51686;46.758;4.356;2022-07-23T08:09:15;6.65;;;3.13;;
65096;SDS011;51686;46.758;4.356;2022-07-23T08:12:01;7.53;;;3.63;;
65096;SDS011;51686;46.758;4.356;2022-07-23T08:14:48;7.68;;;3.33;;
65096;SDS011;51686;46.758;4.356;2022-07-23T08:17:35;6.97;;;3.28;;
65096;SDS011;51686;46.758;4.356;2022-07-23T08:20:23;7.90;;;3.47;;
65096;SDS011;51686;46.758;4.356;2022-07-23T08:23:10;7.50;;;3.55;;
65096;SDS011;51686;46.758;4.356;2022-07-23T08:25:58;6.90;;;3.53;;
65096;SDS011;51686;46.758;4.356;2022-07-23T08:28:46;7.85;;;3.60;;
65096;SDS011;51686;46.758;4.356;2022-07-23T08:31:33;6.97;;;3.30;;
65096;SDS011;51686;46.758;4.356;2022-07-23T08:34:19;7.55;;;3.58;;
65096;SDS011;51686;46.758;4.356;2022-07-23T08:37:06;7.65;;;3.72;;
65096;SDS011;51686;46.758;4.356;2022-07-23T08:39:53;7.35;;;3.80;;
65096;SDS011;51686;46.758;4.356;2022-07-23T08:42:49;7.78;;;3.92;;
65096;SDS011;51686;46.758;4.356;2022-07-23T08:45:38;7.25;;;3.78;;
65096;SDS011;51686;46.758;4.356;2022-07-23T08:48:26;7.90;;;4.10;;
65096;SDS011;51686;46.758;4.356;2022-07-23T08:51:15;9.20;;;4.07;;
65096;SDS011;51686;46.758;4.356;2022-07-23T08:54:02;7.75;;;4.03;;
65096;SDS011;51686;46.758;4.356;2022-07-23T08:56:51;7.63;;;3.70;;
65096;SDS011;51686;46.758;4.356;2022-07-23T08:59:38;7.35;;;3.88;;
65096;SDS011;51686;46.758;4.356;2022-07-23T09:02:25;8.18;;;4.03;;
65096;SDS011;51686;46.758;4.356;2022-07-23T09:05:12;8.00;;;4.22;;
65096;SDS011;51686;46.758;4.356;2022-07-23T09:08:03;7.32;;;3.83;;
65096;SDS011;51686;46.758;4.356;2022-07-23T09:10:56;8.23;;;4.00;;
65096;SDS011;51686;46.758;4.356;2022-07-23T09:13:50;7.78;;;3.83;;
65096;SDS011;51686;46.758;4.356;2022-07-23T09:16:39;7.28;;;3.58;;
65096;SDS011;51686;46.758;4.356;2022-07-23T09:19:27;7.00;;;3.50;;
65096;SDS011;51686;46.758;4.356;2022-07-23T09:22:29;7.40;;;4.05;;
65096;SDS011;51686;46.758;4.356;2022-07-23T09:25:17;7.70;;;3.85;;
65096;SDS011;51686;46.758;4.356;2022-07-23T09:28:08;7.40;;;3.53;;
65096;SDS011;51686;46.758;4.356;2022-07-23T09:30:55;8.52;;;3.78;;
65096;SDS011;51686;46.758;4.356;2022-07-23T09:33:42;6.88;;;3.20;;
65096;SDS011;51686;46.758;4.356;2022-07-23T09:36:29;7.57;;;3.55;;
65096;SDS011;51686;46.758;4.356;2022-07-23T09:39:22;7.03;;;3.30;;
65096;SDS011;51686;46.758;4.356;2022-07-23T09:42:22;7.45;;;3.55;;
65096;SDS011;51686;46.758;4.356;2022-07-23T09:45:12;7.22;;;3.47;;
65096;SDS011;51686;46.758;4.356;2022-07-23T09:48:12;7.07;;;3.53;;
65096;SDS011;51686;46.758;4.356;2022-07-23T09:51:03;7.53;;;3.75;;
65096;SDS011;51686;46.758;4.356;2022-07-23T09:53:51;7.75;;;3.88;;
65096;SDS011;51686;46.758;4.356;2022-07-23T09:56:38;8.73;;;4.28;;
65096;SDS011;51686;46.758;4.356;2022-07-23T09:59:30;7.50;;;3.90;;
65096;SDS011;51686;46.758;4.356;2022-07-23T10:02:22;7.90;;;4.25;;
65096;SDS011;51686;46.758;4.356;2022-07-23T10:05:40;7.57;;;4.07;;
65096;SDS011;51686;46.758;4.356;2022-07-23T10:08:29;8.10;;;3.97;;
65096;SDS011;51686;46.758;4.356;2022-07-23T10:11:17;8.00;;;4.25;;
65096;SDS011;51686;46.758;4.356;2022-07-23T10:14:04;8.40;;;4.00;;
65096;SDS011;51686;46.758;4.356;2022-07-23T10:16:52;7.60;;;3.72;;
65096;SDS011;51686;46.758;4.356;2022-07-23T10:19:39;8.02;;;4.00;;
65096;SDS011;51686;46.758;4.356;2022-07-23T10:22:50;7.22;;;3.72;;
65096;SDS011;51686;46.758;4.356;2022-07-23T10:25:55;8.45;;;3.88;;
65096;SDS011;51686;46.758;4.356;2022-07-23T10:29:22;7.13;;;3.70;;
65096;SDS011;51686;46.758;4.356;2022-07-23T10:32:26;8.00;;;3.88;;
65096;SDS011;51686;46.758;4.356;2022-07-23T10:38:56;8.25;;;4.13;;
65096;SDS011;51686;46.758;4.356;2022-07-23T10:42:08;8.27;;;3.80;;
65096;SDS011;51686;46.758;4.356;2022-07-23T10:44:56;7.82;;;4.07;;
65096;SDS011;51686;46.758;4.356;2022-07-23T10:47:43;8.25;;;4.05;;
65096;SDS011;51686;46.758;4.356;2022-07-23T10:50:33;8.35;;;4.75;;
65096;SDS011;51686;46.758;4.356;2022-07-23T11:02:50;7.65;;;4.05;;
65096;SDS011;51686;46.758;4.356;2022-07-23T11:05:43;8.20;;;3.97;;
65096;SDS011;51686;46.758;4.356;2022-07-23T11:08:31;9.73;;;3.78;;
65096;SDS011;51686;46.758;4.356;2022-07-23T11:11:21;7.53;;;3.70;;
65096;SDS011;51686;46.758;4.356;2022-07-23T11:14:38;7.43;;;3.63;;
65096;SDS011;51686;46.758;4.356;2022-07-23T11:21:06;7.32;;;3.60;;
65096;SDS011;51686;46.758;4.356;2022-07-23T11:24:51;7.40;;;3.60;;
65096;SDS011;51686;46.758;4.356;2022-07-23T11:27:51;7.80;;;3.50;;
65096;SDS011;51686;46.758;4.356;2022-07-23T11:31:03;7.13;;;3.42;;
65096;SDS011;51686;46.758;4.356;2022-07-23T11:38:22;7.22;;;3.30;;
65096;SDS011;51686;46.758;4.356;2022-07-23T11:41:48;6.87;;;3.17;;
65096;SDS011;51686;46.758;4.356;2022-07-23T11:45:08;7.45;;;2.88;;
65096;SDS011;51686;46.758;4.356;2022-07-23T11:49:06;6.50;;;2.97;;
65096;SDS011;51686;46.758;4.356;2022-07-23T11:52:33;6.65;;;2.85;;
65096;SDS011;51686;46.758;4.356;2022-07-23T12:04:45;6.38;;;2.92;;
65096;SDS011;51686;46.758;4.356;2022-07-23T12:07:56;7.20;;;3.00;;
65096;SDS011;51686;46.758;4.356;2022-07-23T12:10:43;6.60;;;3.10;;
65096;SDS011;51686;46.758;4.356;2022-07-23T12:13:31;7.78;;;3.33;;
65096;SDS011;51686;46.758;4.356;2022-07-23T12:16:17;7.22;;;3.17;;
65096;SDS011;51686;46.758;4.356;2022-07-23T12:19:04;6.65;;;3.10;;
65096;SDS011;51686;46.758;4.356;2022-07-23T12:21:51;6.45;;;3.20;;
65096;SDS011;51686;46.758;4.356;2022-07-23T12:24:52;6.82;;;3.30;;
65096;SDS011;51686;46.758;4.356;2022-07-23T12:27:46;7.30;;;3.13;;
65096;SDS011;51686;46.758;4.356;2022-07-23T12:33:39;7.35;;;3.13;;
65096;SDS011;51686;46.758;4.356;2022-07-23T12:36:36;6.88;;;3.38;;
65096;SDS011;51686;46.758;4.356;2022-07-23T12:39:32;7.00;;;3.10;;
65096;SDS011;51686;46.758;4.356;2022-07-23T12:42:19;7.60;;;3.40;;
65096;SDS011;51686;46.758;4.356;2022-07-23T12:45:10;6.13;;;2.95;;
65096;SDS011;51686;46.758;4.356;2022-07-23T12:48:04;6.68;;;3.30;;
65096;SDS011;51686;46.758;4.356;2022-07-23T12:50:57;6.72;;;2.90;;
65096;SDS011;51686;46.758;4.356;2022-07-23T12:53:48;6.20;;;2.72;;
65096;SDS011;51686;46.758;4.356;2022-07-23T12:56:48;5.60;;;2.70;;
65096;SDS011;51686;46.758;4.356;2022-07-23T12:59:34;5.63;;;2.70;;
65096;SDS011;51686;46.758;4.356;2022-07-23T13:02:21;7.07;;;3.17;;
65096;SDS011;51686;46.758;4.356;2022-07-23T13:05:08;6.63;;;2.97;;
65096;SDS011;51686;46.758;4.356;2022-07-23T13:07:58;6.90;;;3.03;;
65096;SDS011;51686;46.758;4.356;2022-07-23T13:10:45;5.85;;;2.80;;
65096;SDS011;51686;46.758;4.356;2022-07-23T13:13:37;6.03;;;2.85;;
65096;SDS011;51686;46.758;4.356;2022-07-23T13:16:24;6.28;;;2.85;;
65096;SDS011;51686;46.758;4.356;2022-07-23T13:19:14;7.10;;;2.90;;
65096;SDS011;51686;46.758;4.356;2022-07-23T13:22:04;5.50;;;2.70;;
65096;SDS011;51686;46.758;4.356;2022-07-23T13:24:55;6.88;;;3.00;;
65096;SDS011;51686;46.758;4.356;2022-07-23T13:27:42;6.88;;;2.95;;
65096;SDS011;51686;46.758;4.356;2022-07-23T13:30:30;6.93;;;2.90;;
65096;SDS011;51686;46.758;4.356;2022-07-23T13:33:18;6.80;;;2.85;;
65096;SDS011;51686;46.758;4.356;2022-07-23T13:36:06;6.53;;;2.90;;
65096;SDS011;51686;46.758;4.356;2022-07-23T13:38:53;6.03;;;2.90;;
65096;SDS011;51686;46.758;4.356;2022-07-23T13:41:39;6.20;;;2.92;;
65096;SDS011;51686;46.758;4.356;2022-07-23T13:44:36;6.07;;;2.72;;
65096;SDS011;51686;46.758;4.356;2022-07-23T13:47:23;6.65;;;2.97;;
65096;SDS011;51686;46.758;4.356;2022-07-23T13:50:10;6.60;;;3.05;;
65096;SDS011;51686;46.758;4.356;2022-07-23T13:53:00;6.35;;;2.60;;
65096;SDS011;51686;46.758;4.356;2022-07-23T13:55:52;6.95;;;2.78;;
65096;SDS011;51686;46.758;4.356;2022-07-23T13:58:42;6.53;;;2.92;;
65096;SDS011;51686;46.758;4.356;2022-07-23T14:01:29;6.60;;;3.03;;
65096;SDS011;51686;46.758;4.356;2022-07-23T14:04:31;7.45;;;3.28;;
65096;SDS011;51686;46.758;4.356;2022-07-23T14:07:20;6.95;;;3.05;;
65096;SDS011;51686;46.758;4.356;2022-07-23T14:12:54;6.37;;;2.80;;
65096;SDS011;51686;46.758;4.356;2022-07-23T14:15:42;6.18;;;2.90;;
65096;SDS011;51686;46.758;4.356;2022-07-23T14:18:29;6.63;;;3.03;;
65096;SDS011;51686;46.758;4.356;2022-07-23T14:21:19;6.68;;;3.00;;
65096;SDS011;51686;46.758;4.356;2022-07-23T14:24:06;6.82;;;3.10;;
65096;SDS011;51686;46.758;4.356;2022-07-23T14:26:53;11.05;;;3.38;;
65096;SDS011;51686;46.758;4.356;2022-07-23T14:29:42;8.43;;;3.30;;
65096;SDS011;51686;46.758;4.356;2022-07-23T14:32:29;8.07;;;3.20;;
65096;SDS011;51686;46.758;4.356;2022-07-23T14:35:16;6.57;;;2.95;;
65096;SDS011;51686;46.758;4.356;2022-07-23T14:38:05;7.85;;;3.38;;
65096;SDS011;51686;46.758;4.356;2022-07-23T14:40:52;7.80;;;3.30;;
65096;SDS011;51686;46.758;4.356;2022-07-23T14:43:38;6.82;;;3.22;;
65096;SDS011;51686;46.758;4.356;2022-07-23T14:46:25;6.53;;;2.90;;
65096;SDS011;51686;46.758;4.356;2022-07-23T14:49:13;6.93;;;3.22;;
65096;SDS011;51686;46.758;4.356;2022-07-23T14:52:01;6.50;;;2.90;;
65096;SDS011;51686;46.758;4.356;2022-07-23T14:54:48;6.47;;;2.97;;
65096;SDS011;51686;46.758;4.356;2022-07-23T14:57:36;6.72;;;3.00;;
65096;SDS011;51686;46.758;4.356;2022-07-23T15:00:22;6.57;;;2.90;;
65096;SDS011;51686;46.758;4.356;2022-07-23T15:03:09;6.35;;;3.05;;
65096;SDS011;51686;46.758;4.356;2022-07-23T15:05:56;6.35;;;2.85;;
65096;SDS011;51686;46.758;4.356;2022-07-23T15:08:43;6.25;;;2.92;;
65096;SDS011;51686;46.758;4.356;2022-07-23T15:11:30;6.00;;;2.70;;
65096;SDS011;51686;46.758;4.356;2022-07-23T15:14:19;6.20;;;2.97;;
65096;SDS011;51686;46.758;4.356;2022-07-23T15:17:15;7.43;;;3.00;;
65096;SDS011;51686;46.758;4.356;2022-07-23T15:20:02;5.85;;;2.97;;
65096;SDS011;51686;46.758;4.356;2022-07-23T15:22:49;7.55;;;3.20;;
65096;SDS011;51686;46.758;4.356;2022-07-23T15:25:36;6.80;;;3.20;;
65096;SDS011;51686;46.758;4.356;2022-07-23T15:28:23;6.83;;;3.20;;
65096;SDS011;51686;46.758;4.356;2022-07-23T15:31:10;5.82;;;2.75;;
65096;SDS011;51686;46.758;4.356;2022-07-23T15:33:57;6.07;;;2.90;;
65096;SDS011;51686;46.758;4.356;2022-07-23T15:36:45;7.22;;;3.28;;
65096;SDS011;51686;46.758;4.356;2022-07-23T15:39:32;7.10;;;3.15;;
65096;SDS011;51686;46.758;4.356;2022-07-23T15:42:19;6.37;;;3.03;;
65096;SDS011;51686;46.758;4.356;2022-07-23T15:45:06;7.00;;;3.08;;
65096;SDS011;51686;46.758;4.356;2022-07-23T15:47:56;7.10;;;3.28;;
65096;SDS011;51686;46.758;4.356;2022-07-23T15:50:43;6.53;;;3.00;;
65096;SDS011;51686;46.758;4.356;2022-07-23T15:53:32;6.60;;;3.10;;
65096;SDS011;51686;46.758;4.356;2022-07-23T15:56:22;7.30;;;3.30;;
65096;SDS011;51686;46.758;4.356;2022-07-23T15:59:09;6.70;;;3.05;;
65096;SDS011;51686;46.758;4.356;2022-07-23T16:01:57;7.17;;;3.33;;
65096;SDS011;51686;46.758;4.356;2022-07-23T16:04:44;7.30;;;3.20;;
65096;SDS011;51686;46.758;4.356;2022-07-23T16:07:31;6.45;;;3.08;;
65096;SDS011;51686;46.758;4.356;2022-07-23T16:10:25;6.88;;;3.28;;
65096;SDS011;51686;46.758;4.356;2022-07-23T16:13:12;7.00;;;3.28;;
65096;SDS011;51686;46.758;4.356;2022-07-23T16:16:00;6.50;;;3.03;;
65096;SDS011;51686;46.758;4.356;2022-07-23T16:18:47;6.63;;;3.15;;
65096;SDS011;51686;46.758;4.356;2022-07-23T16:21:37;6.25;;;3.17;;
65096;SDS011;51686;46.758;4.356;2022-07-23T16:24:25;6.80;;;3.03;;
65096;SDS011;51686;46.758;4.356;2022-07-23T16:27:11;7.38;;;3.00;;
65096;SDS011;51686;46.758;4.356;2022-07-23T16:29:58;7.40;;;3.38;;
65096;SDS011;51686;46.758;4.356;2022-07-23T16:32:45;7.65;;;3.40;;
65096;SDS011;51686;46.758;4.356;2022-07-23T16:35:33;7.00;;;3.13;;
65096;SDS011;51686;46.758;4.356;2022-07-23T16:38:20;6.70;;;3.30;;
65096;SDS011;51686;46.758;4.356;2022-07-23T16:43:55;6.53;;;2.97;;
65096;SDS011;51686;46.758;4.356;2022-07-23T16:46:42;6.50;;;3.08;;
65096;SDS011;51686;46.758;4.356;2022-07-23T16:49:29;7.70;;;3.33;;
65096;SDS011;51686;46.758;4.356;2022-07-23T16:52:16;6.53;;;3.20;;
65096;SDS011;51686;46.758;4.356;2022-07-23T16:55:03;7.40;;;3.60;;
65096;SDS011;51686;46.758;4.356;2022-07-23T16:57:51;7.60;;;3.75;;
65096;SDS011;51686;46.758;4.356;2022-07-23T17:00:38;7.28;;;3.63;;
65096;SDS011;51686;46.758;4.356;2022-07-23T17:03:25;7.28;;;3.55;;
65096;SDS011;51686;46.758;4.356;2022-07-23T17:09:00;6.32;;;2.95;;
65096;SDS011;51686;46.758;4.356;2022-07-23T17:11:52;7.32;;;3.58;;
65096;SDS011;51686;46.758;4.356;2022-07-23T17:14:39;7.35;;;3.83;;
65096;SDS011;51686;46.758;4.356;2022-07-23T17:17:26;7.72;;;3.78;;
65096;SDS011;51686;46.758;4.356;2022-07-23T17:20:13;7.30;;;3.70;;
65096;SDS011;51686;46.758;4.356;2022-07-23T17:23:00;7.20;;;3.73;;
65096;SDS011;51686;46.758;4.356;2022-07-23T17:25:47;7.40;;;3.88;;
65096;SDS011;51686;46.758;4.356;2022-07-23T17:28:34;8.70;;;3.77;;
65096;SDS011;51686;46.758;4.356;2022-07-23T17:31:21;8.57;;;4.20;;
65096;SDS011;51686;46.758;4.356;2022-07-23T17:34:07;8.25;;;3.95;;
65096;SDS011;51686;46.758;4.356;2022-07-23T17:37:04;8.57;;;4.10;;
65096;SDS011;51686;46.758;4.356;2022-07-23T17:39:55;7.57;;;3.83;;
65096;SDS011;51686;46.758;4.356;2022-07-23T17:42:42;7.53;;;3.75;;
65096;SDS011;51686;46.758;4.356;2022-07-23T17:45:34;8.35;;;4.00;;
65096;SDS011;51686;46.758;4.356;2022-07-23T17:48:21;7.75;;;4.13;;
65096;SDS011;51686;46.758;4.356;2022-07-23T17:51:08;7.68;;;3.92;;
65096;SDS011;51686;46.758;4.356;2022-07-23T17:53:55;8.50;;;4.45;;
65096;SDS011;51686;46.758;4.356;2022-07-23T17:56:43;8.02;;;4.10;;
65096;SDS011;51686;46.758;4.356;2022-07-23T17:59:30;8.75;;;4.45;;
65096;SDS011;51686;46.758;4.356;2022-07-23T18:02:17;8.52;;;4.35;;
65096;SDS011;51686;46.758;4.356;2022-07-23T18:05:04;9.07;;;4.70;;
65096;SDS011;51686;46.758;4.356;2022-07-23T18:07:51;8.73;;;4.70;;
65096;SDS011;51686;46.758;4.356;2022-07-23T18:10:38;7.88;;;4.03;;
65096;SDS011;51686;46.758;4.356;2022-07-23T18:13:25;9.00;;;4.63;;
65096;SDS011;51686;46.758;4.356;2022-07-23T18:16:12;8.70;;;4.35;;
65096;SDS011;51686;46.758;4.356;2022-07-23T18:19:00;7.35;;;3.92;;
65096;SDS011;51686;46.758;4.356;2022-07-23T18:21:47;7.95;;;4.22;;
65096;SDS011;51686;46.758;4.356;2022-07-23T18:24:34;7.90;;;4.30;;
65096;SDS011;51686;46.758;4.356;2022-07-23T18:27:21;7.68;;;4.38;;
65096;SDS011;51686;46.758;4.356;2022-07-23T18:30:08;7.82;;;4.20;;